Time;durP1;ratioP1;P1;durP2;ratioP2;P2;SDS_P1;SDS_P2;PMS_P1;PMS_P2;Temp;Humidity;BMP_temperature;BMP_pressure;BME280_temperature;BME280_humidity;BME280_pressure;Samples;Min_cycle;Max_cycle;Signal;HPM_P1;HPM_P2
2023/12/13 00:02:16;;;;;;;3.30;1.50;;;;;;;;;;4995660;28;20406;-81
2023/12/13 00:04:42;;;;;;;2.70;1.58;;;;;;;;;;4995358;28;20752;-81
2023/12/13 00:07:08;;;;;;;3.87;1.90;;;;;;;;;;4995135;28;20317;-84
2023/12/13 00:09:34;;;;;;;3.50;2.07;;;;;;;;;;4996046;28;20414;-81
2023/12/13 00:12:00;;;;;;;2.23;2.03;;;;;;;;;;4996191;28;20982;-81
2023/12/13 00:14:26;;;;;;;3.43;1.80;;;;;;;;;;4995709;28;20407;-81
2023/12/13 00:16:52;;;;;;;3.75;1.80;;;;;;;;;;4995719;28;20472;-81
2023/12/13 00:19:20;;;;;;;1.70;1.23;;;;;;;;;;4995591;28;20242;-81
2023/12/13 00:21:46;;;;;;;2.92;1.25;;;;;;;;;;4996077;28;20509;-80
2023/12/13 00:24:12;;;;;;;3.87;1.10;;;;;;;;;;4995515;28;20195;-81
2023/12/13 00:26:39;;;;;;;1.35;1.20;;;;;;;;;;4995788;28;20842;-81
2023/12/13 00:29:05;;;;;;;2.22;1.20;;;;;;;;;;4988374;28;20187;-81
2023/12/13 00:31:31;;;;;;;3.07;1.40;;;;;;;;;;4975765;28;20188;-81
2023/12/13 00:33:57;;;;;;;3.33;1.55;;;;;;;;;;4975923;28;20457;-81
2023/12/13 00:36:23;;;;;;;3.53;1.50;;;;;;;;;;4979212;28;20359;-81
2023/12/13 00:38:49;;;;;;;1.70;1.40;;;;;;;;;;4980064;28;20410;-81
2023/12/13 00:41:16;;;;;;;4.90;1.70;;;;;;;;;;4979675;28;20411;-81
2023/12/13 00:43:41;;;;;;;3.60;2.10;;;;;;;;;;4978567;28;20434;-80
2023/12/13 00:46:14;;;;;;;3.33;1.70;;;;;;;;;;4979725;28;20723;-80
2023/12/13 00:48:40;;;;;;;3.13;1.85;;;;;;;;;;4979690;28;20933;-81
2023/12/13 00:51:14;;;;;;;2.40;1.37;;;;;;;;;;4978627;28;20227;-81
2023/12/13 00:53:40;;;;;;;1.90;1.35;;;;;;;;;;4980378;28;20410;-80
2023/12/13 00:56:07;;;;;;;3.33;1.60;;;;;;;;;;4979609;28;20210;-81
2023/12/13 00:58:33;;;;;;;4.07;2.20;;;;;;;;;;4979042;28;20447;-81
2023/12/13 01:00:59;;;;;;;8.15;1.88;;;;;;;;;;4979338;28;20188;-81
2023/12/13 01:03:25;;;;;;;4.67;2.07;;;;;;;;;;4979363;28;20187;-81
2023/12/13 01:05:51;;;;;;;9.70;2.05;;;;;;;;;;4979240;28;20426;-81
2023/12/13 01:08:17;;;;;;;1.83;1.50;;;;;;;;;;4979065;28;20234;-81
2023/12/13 01:10:43;;;;;;;3.55;1.65;;;;;;;;;;4979255;28;20172;-81
2023/12/13 01:13:09;;;;;;;3.90;1.80;;;;;;;;;;4979339;28;20238;-81
2023/12/13 01:15:35;;;;;;;2.67;1.33;;;;;;;;;;4978823;28;20219;-81
2023/12/13 01:18:01;;;;;;;8.23;1.63;;;;;;;;;;4979298;28;20183;-81
2023/12/13 01:20:27;;;;;;;3.20;1.30;;;;;;;;;;4977790;28;20746;-81
2023/12/13 01:22:53;;;;;;;2.23;1.60;;;;;;;;;;4979384;28;20437;-80
2023/12/13 01:25:19;;;;;;;4.10;1.47;;;;;;;;;;4979020;28;20471;-81
2023/12/13 01:27:45;;;;;;;6.73;1.80;;;;;;;;;;4979332;28;20449;-81
2023/12/13 01:30:11;;;;;;;1.63;1.07;;;;;;;;;;4963291;28;20508;-81
2023/12/13 01:32:37;;;;;;;4.93;1.75;;;;;;;;;;4958863;29;20420;-83
2023/12/13 01:35:03;;;;;;;2.47;1.60;;;;;;;;;;4958766;29;20223;-83
2023/12/13 01:37:29;;;;;;;3.60;1.60;;;;;;;;;;4958015;29;20185;-83
2023/12/13 01:39:56;;;;;;;2.22;0.95;;;;;;;;;;4958327;28;20187;-83
2023/12/13 01:42:23;;;;;;;6.97;1.58;;;;;;;;;;4958875;28;20212;-83
2023/12/13 01:44:49;;;;;;;4.60;1.63;;;;;;;;;;4958723;28;20664;-83
2023/12/13 01:47:15;;;;;;;4.05;1.73;;;;;;;;;;4958249;28;20199;-84
2023/12/13 01:49:41;;;;;;;5.53;1.65;;;;;;;;;;4958675;29;20193;-82
2023/12/13 01:52:08;;;;;;;5.00;1.57;;;;;;;;;;4958760;29;20260;-82
2023/12/13 01:54:34;;;;;;;4.07;1.38;;;;;;;;;;4957352;29;20435;-82
2023/12/13 01:57:01;;;;;;;1.58;1.13;;;;;;;;;;4958964;29;20197;-82
2023/12/13 01:59:28;;;;;;;2.78;1.30;;;;;;;;;;4958131;28;20202;-82
2023/12/13 02:01:55;;;;;;;5.80;1.70;;;;;;;;;;4958386;28;20226;-82
2023/12/13 02:04:21;;;;;;;3.30;1.75;;;;;;;;;;4958109;29;20188;-83
2023/12/13 02:06:47;;;;;;;4.53;1.50;;;;;;;;;;4956961;28;20271;-82
2023/12/13 02:09:13;;;;;;;2.40;1.65;;;;;;;;;;4958339;29;20617;-82
2023/12/13 02:11:39;;;;;;;5.53;1.60;;;;;;;;;;4982219;28;20222;-82
2023/12/13 02:14:05;;;;;;;3.97;1.50;;;;;;;;;;4997009;28;20422;-82
2023/12/13 02:16:32;;;;;;;3.95;1.48;;;;;;;;;;4996615;28;20473;-82
2023/12/13 02:18:58;;;;;;;2.97;1.30;;;;;;;;;;4996938;28;20179;-82
2023/12/13 02:21:25;;;;;;;3.90;1.75;;;;;;;;;;4995001;28;20214;-83
2023/12/13 02:23:52;;;;;;;2.58;1.35;;;;;;;;;;4997323;28;20178;-82
2023/12/13 02:26:18;;;;;;;3.35;1.55;;;;;;;;;;4996796;28;20205;-83
2023/12/13 02:28:45;;;;;;;3.15;1.33;;;;;;;;;;4997023;28;20179;-82
2023/12/13 02:31:12;;;;;;;8.23;1.73;;;;;;;;;;4996923;28;20550;-82
2023/12/13 02:33:40;;;;;;;3.13;1.48;;;;;;;;;;4996564;28;20176;-82
2023/12/13 02:36:07;;;;;;;3.38;1.42;;;;;;;;;;4996721;28;20238;-82
2023/12/13 02:38:33;;;;;;;2.38;1.20;;;;;;;;;;4996488;28;20175;-82
2023/12/13 02:40:59;;;;;;;2.43;1.10;;;;;;;;;;4995997;28;20173;-83
2023/12/13 02:43:27;;;;;;;3.97;1.70;;;;;;;;;;4994518;28;20439;-86
2023/12/13 02:45:53;;;;;;;4.40;1.70;;;;;;;;;;4994870;28;20541;-85
2023/12/13 02:48:19;;;;;;;4.85;1.80;;;;;;;;;;4996033;28;20222;-85
2023/12/13 02:50:48;;;;;;;4.75;1.60;;;;;;;;;;4995666;28;20282;-84
2023/12/13 02:53:14;;;;;;;2.25;1.40;;;;;;;;;;4995808;28;20274;-84
2023/12/13 02:55:40;;;;;;;5.28;1.92;;;;;;;;;;4994498;28;20307;-83
2023/12/13 02:58:06;;;;;;;6.60;2.07;;;;;;;;;;4995554;28;20266;-83
2023/12/13 03:00:31;;;;;;;5.03;1.63;;;;;;;;;;4994462;28;20405;-83
2023/12/13 03:02:57;;;;;;;2.60;1.90;;;;;;;;;;4995780;28;20410;-83
2023/12/13 03:05:24;;;;;;;4.40;1.73;;;;;;;;;;4995403;28;20406;-83
2023/12/13 03:07:50;;;;;;;8.93;2.85;;;;;;;;;;4995523;28;20517;-82
2023/12/13 03:10:16;;;;;;;3.00;1.50;;;;;;;;;;4995607;28;20186;-82
2023/12/13 03:12:42;;;;;;;6.47;1.70;;;;;;;;;;4995615;28;20454;-83
2023/12/13 03:15:08;;;;;;;7.53;1.48;;;;;;;;;;4995908;28;20258;-83
2023/12/13 03:17:34;;;;;;;3.47;1.92;;;;;;;;;;4995723;28;20211;-83
2023/12/13 03:20:00;;;;;;;3.37;1.67;;;;;;;;;;4995552;28;20218;-82
2023/12/13 03:22:26;;;;;;;3.20;1.63;;;;;;;;;;4994246;28;20411;-82
2023/12/13 03:24:52;;;;;;;5.70;2.20;;;;;;;;;;4996326;28;20418;-82
2023/12/13 03:27:18;;;;;;;4.40;2.20;;;;;;;;;;4995488;28;20434;-82
2023/12/13 03:29:44;;;;;;;5.10;1.90;;;;;;;;;;4983214;28;20264;-82
2023/12/13 03:32:10;;;;;;;3.65;2.00;;;;;;;;;;4976038;28;20414;-83
2023/12/13 03:34:36;;;;;;;3.40;2.22;;;;;;;;;;4975791;28;20248;-82
2023/12/13 03:37:03;;;;;;;4.20;2.00;;;;;;;;;;4976190;28;20703;-82
2023/12/13 03:39:29;;;;;;;5.38;2.50;;;;;;;;;;4975764;28;20442;-82
2023/12/13 03:41:55;;;;;;;8.98;2.85;;;;;;;;;;4976377;28;20184;-82
2023/12/13 03:44:21;;;;;;;4.38;2.10;;;;;;;;;;4976086;28;20172;-83
2023/12/13 03:46:47;;;;;;;6.13;2.07;;;;;;;;;;4976042;28;20199;-82
2023/12/13 03:49:13;;;;;;;7.47;2.07;;;;;;;;;;4976131;28;20837;-82
2023/12/13 03:51:43;;;;;;;3.88;2.13;;;;;;;;;;4976088;28;20408;-82
2023/12/13 03:54:09;;;;;;;5.57;2.10;;;;;;;;;;4976159;28;20157;-82
2023/12/13 03:56:35;;;;;;;11.10;2.60;;;;;;;;;;4975491;28;20200;-82
2023/12/13 03:59:01;;;;;;;7.05;2.42;;;;;;;;;;4975801;28;20172;-82
2023/12/13 04:01:27;;;;;;;3.83;2.43;;;;;;;;;;4975976;28;20176;-82
2023/12/13 04:03:53;;;;;;;7.33;2.53;;;;;;;;;;4976327;28;20419;-81
2023/12/13 04:06:19;;;;;;;8.33;2.83;;;;;;;;;;4976209;28;20506;-81
2023/12/13 04:08:45;;;;;;;5.43;2.67;;;;;;;;;;4976699;28;20535;-81
2023/12/13 04:11:11;;;;;;;8.80;3.57;;;;;;;;;;4979924;28;20451;-82
2023/12/13 04:13:37;;;;;;;9.40;3.07;;;;;;;;;;4979893;28;20502;-82
2023/12/13 04:16:03;;;;;;;10.33;2.80;;;;;;;;;;4979888;28;20466;-82
2023/12/13 04:18:29;;;;;;;4.85;3.00;;;;;;;;;;4979608;28;20435;-81
2023/12/13 04:20:55;;;;;;;9.23;2.80;;;;;;;;;;4980284;28;20187;-82
2023/12/13 04:23:21;;;;;;;7.07;2.27;;;;;;;;;;4979828;28;20445;-81
2023/12/13 04:25:47;;;;;;;6.70;3.10;;;;;;;;;;4979394;28;20403;-81
2023/12/13 04:28:13;;;;;;;5.00;2.77;;;;;;;;;;4979152;28;20188;-81
2023/12/13 04:30:39;;;;;;;5.43;2.97;;;;;;;;;;4960024;29;20562;-81
2023/12/13 04:33:05;;;;;;;6.93;2.67;;;;;;;;;;4960848;29;20641;-81
2023/12/13 04:35:32;;;;;;;9.80;2.30;;;;;;;;;;4960190;28;20492;-82
2023/12/13 04:37:58;;;;;;;5.60;2.70;;;;;;;;;;4960642;28;20818;-81
2023/12/13 04:40:25;;;;;;;3.28;2.80;;;;;;;;;;4960223;29;20181;-81
2023/12/13 04:42:51;;;;;;;5.90;2.60;;;;;;;;;;4960550;28;20203;-81
2023/12/13 04:45:17;;;;;;;6.55;2.63;;;;;;;;;;4960051;29;20215;-82
2023/12/13 04:47:43;;;;;;;5.93;2.90;;;;;;;;;;4959987;29;20185;-81
2023/12/13 04:50:09;;;;;;;14.05;2.40;;;;;;;;;;4960251;29;20511;-81
2023/12/13 04:52:35;;;;;;;3.95;2.10;;;;;;;;;;4959856;29;20217;-81
2023/12/13 04:55:01;;;;;;;8.48;2.53;;;;;;;;;;4959896;28;20220;-81
2023/12/13 04:57:27;;;;;;;8.73;2.83;;;;;;;;;;4959996;28;20537;-82
2023/12/13 04:59:53;;;;;;;11.67;2.87;;;;;;;;;;4960191;29;20187;-81
2023/12/13 05:02:19;;;;;;;11.80;2.90;;;;;;;;;;4959941;29;20440;-81
2023/12/13 05:04:46;;;;;;;6.50;2.73;;;;;;;;;;4959576;29;20252;-81
2023/12/13 05:07:12;;;;;;;5.10;2.45;;;;;;;;;;4960028;28;20466;-81
2023/12/13 05:09:38;;;;;;;6.07;2.70;;;;;;;;;;4959466;29;20183;-81
2023/12/13 05:12:05;;;;;;;5.50;2.25;;;;;;;;;;4960042;28;20218;-81
2023/12/13 05:14:31;;;;;;;11.23;2.20;;;;;;;;;;4959207;28;20198;-82
2023/12/13 05:16:57;;;;;;;8.15;2.08;;;;;;;;;;4959750;28;20225;-81
2023/12/13 05:19:23;;;;;;;8.53;2.67;;;;;;;;;;4973929;28;20627;-80
2023/12/13 05:21:49;;;;;;;9.47;2.60;;;;;;;;;;4959109;29;20492;-81
2023/12/13 05:24:15;;;;;;;6.40;2.17;;;;;;;;;;4978293;28;20431;-81
2023/12/13 05:26:40;;;;;;;7.70;2.40;;;;;;;;;;4978653;28;20440;-81
2023/12/13 05:29:06;;;;;;;7.20;2.43;;;;;;;;;;4985413;28;20419;-81
2023/12/13 05:31:33;;;;;;;4.17;1.77;;;;;;;;;;4997927;28;20408;-82
2023/12/13 05:33:59;;;;;;;11.50;2.40;;;;;;;;;;4997922;28;20411;-81
2023/12/13 05:36:25;;;;;;;7.10;2.83;;;;;;;;;;4997682;28;20216;-81
2023/12/13 05:38:51;;;;;;;8.00;2.53;;;;;;;;;;4996796;28;20458;-81
2023/12/13 05:41:17;;;;;;;5.83;2.27;;;;;;;;;;4997763;28;20422;-82
2023/12/13 05:43:43;;;;;;;9.20;2.63;;;;;;;;;;4995833;28;20984;-82
2023/12/13 05:46:09;;;;;;;7.90;2.22;;;;;;;;;;4996715;28;20498;-81
2023/12/13 05:48:35;;;;;;;5.43;2.22;;;;;;;;;;4997961;28;20619;-81
2023/12/13 05:51:01;;;;;;;8.77;2.60;;;;;;;;;;4997651;28;20188;-81
2023/12/13 05:53:27;;;;;;;8.13;2.67;;;;;;;;;;4997557;28;20444;-81
2023/12/13 05:55:53;;;;;;;10.18;2.83;;;;;;;;;;4997201;28;20513;-82
2023/12/13 05:58:19;;;;;;;7.43;2.33;;;;;;;;;;4997377;28;20680;-81
2023/12/13 06:00:45;;;;;;;7.20;2.63;;;;;;;;;;4997628;28;20210;-82
2023/12/13 06:03:11;;;;;;;3.65;2.50;;;;;;;;;;4997462;28;20395;-81
2023/12/13 06:05:37;;;;;;;4.77;2.30;;;;;;;;;;4997294;28;20190;-81
2023/12/13 06:08:03;;;;;;;5.03;2.57;;;;;;;;;;4997581;28;20503;-81
2023/12/13 06:10:29;;;;;;;4.50;2.67;;;;;;;;;;4997400;28;20403;-82
2023/12/13 06:12:57;;;;;;;5.27;2.63;;;;;;;;;;4997280;28;20502;-81
2023/12/13 06:15:23;;;;;;;7.40;2.58;;;;;;;;;;4997027;28;20474;-81
2023/12/13 06:17:49;;;;;;;4.47;2.30;;;;;;;;;;4996756;28;20520;-82
2023/12/13 06:20:16;;;;;;;10.85;2.88;;;;;;;;;;4997174;28;20179;-82
2023/12/13 06:22:42;;;;;;;6.68;2.58;;;;;;;;;;4996356;28;20191;-81
2023/12/13 06:25:08;;;;;;;7.13;2.60;;;;;;;;;;4996447;28;20203;-82
2023/12/13 06:27:34;;;;;;;9.60;2.70;;;;;;;;;;4995298;28;20185;-83
2023/12/13 06:30:00;;;;;;;4.07;2.60;;;;;;;;;;4982270;28;20195;-83
2023/12/13 06:32:26;;;;;;;7.50;2.20;;;;;;;;;;4976374;28;20176;-81
2023/12/13 06:34:52;;;;;;;12.70;3.03;;;;;;;;;;4977594;28;20183;-81
2023/12/13 06:37:19;;;;;;;10.73;3.40;;;;;;;;;;4976471;28;20417;-81
2023/12/13 06:39:45;;;;;;;8.68;3.05;;;;;;;;;;4977471;28;20185;-81
2023/12/13 06:42:11;;;;;;;6.90;2.80;;;;;;;;;;4977350;28;20181;-80
2023/12/13 06:44:37;;;;;;;4.40;2.40;;;;;;;;;;4977682;28;20911;-81
2023/12/13 06:47:05;;;;;;;8.23;2.83;;;;;;;;;;4977744;28;20421;-80
2023/12/13 06:49:32;;;;;;;6.97;3.25;;;;;;;;;;4978036;28;20192;-81
2023/12/13 06:51:58;;;;;;;8.27;2.85;;;;;;;;;;4977326;28;20211;-80
2023/12/13 06:54:30;;;;;;;9.15;3.22;;;;;;;;;;5072475;28;20543;-81
2023/12/13 06:56:56;;;;;;;8.03;3.93;;;;;;;;;;5072494;28;20697;-81
2023/12/13 06:59:23;;;;;;;4.93;2.75;;;;;;;;;;5072530;28;20538;-81
2023/12/13 07:01:49;;;;;;;6.22;2.85;;;;;;;;;;5072654;28;20177;-82
2023/12/13 07:04:14;;;;;;;7.50;3.22;;;;;;;;;;5072922;28;20207;-81
2023/12/13 07:06:42;;;;;;;9.10;3.30;;;;;;;;;;5072073;28;20205;-81
2023/12/13 07:09:10;;;;;;;5.95;2.70;;;;;;;;;;5072229;28;20395;-81
2023/12/13 07:11:36;;;;;;;5.55;3.40;;;;;;;;;;5072400;28;20192;-81
2023/12/13 07:14:02;;;;;;;7.30;3.27;;;;;;;;;;5072421;28;20212;-81
2023/12/13 07:16:28;;;;;;;7.07;3.53;;;;;;;;;;5072543;28;20422;-81
2023/12/13 07:18:55;;;;;;;6.77;2.90;;;;;;;;;;5072042;28;20700;-81
2023/12/13 07:21:21;;;;;;;7.45;2.90;;;;;;;;;;5072190;28;20413;-81
2023/12/13 07:23:48;;;;;;;6.03;2.67;;;;;;;;;;5072561;28;20647;-81
2023/12/13 07:26:16;;;;;;;8.50;3.58;;;;;;;;;;5072602;28;20460;-81
2023/12/13 07:28:42;;;;;;;7.30;3.70;;;;;;;;;;5072058;28;20664;-81
2023/12/13 07:31:08;;;;;;;5.67;2.97;;;;;;;;;;5071849;28;20173;-81
2023/12/13 07:33:34;;;;;;;9.40;4.45;;;;;;;;;;5071903;28;20458;-81
2023/12/13 07:36:00;;;;;;;6.93;3.20;;;;;;;;;;5072169;28;20263;-81
2023/12/13 07:38:26;;;;;;;14.95;3.95;;;;;;;;;;5072025;28;20230;-81
2023/12/13 07:40:52;;;;;;;8.50;3.50;;;;;;;;;;5072040;28;20167;-81
2023/12/13 07:43:19;;;;;;;11.47;4.00;;;;;;;;;;5071872;28;20416;-81
2023/12/13 07:45:51;;;;;;;15.18;5.35;;;;;;;;;;5071922;28;20498;-82
2023/12/13 07:48:17;;;;;;;10.68;3.40;;;;;;;;;;5071340;28;20653;-81
2023/12/13 07:50:43;;;;;;;7.57;3.42;;;;;;;;;;5071696;28;20656;-81
2023/12/13 07:53:09;;;;;;;6.63;3.75;;;;;;;;;;5071149;28;20242;-81
2023/12/13 07:55:35;;;;;;;13.50;4.03;;;;;;;;;;5071534;28;20203;-81
2023/12/13 07:58:01;;;;;;;8.43;3.97;;;;;;;;;;5071079;28;20417;-81
2023/12/13 08:00:27;;;;;;;14.73;4.10;;;;;;;;;;5071134;28;20464;-80
2023/12/13 08:02:53;;;;;;;9.35;3.75;;;;;;;;;;5071401;28;20900;-81
2023/12/13 08:05:20;;;;;;;8.30;3.90;;;;;;;;;;5060959;28;20202;-81
2023/12/13 08:07:46;;;;;;;6.93;3.90;;;;;;;;;;5057837;28;20444;-81
2023/12/13 08:10:12;;;;;;;13.68;5.18;;;;;;;;;;5058312;28;20184;-81
2023/12/13 08:12:38;;;;;;;9.97;4.50;;;;;;;;;;5057709;28;20198;-81
2023/12/13 08:15:05;;;;;;;11.00;4.72;;;;;;;;;;5058033;28;20738;-81
2023/12/13 08:17:32;;;;;;;8.43;4.15;;;;;;;;;;5057684;28;20170;-81
2023/12/13 08:19:58;;;;;;;9.25;3.50;;;;;;;;;;5057195;28;20185;-81
2023/12/13 08:22:24;;;;;;;18.03;4.57;;;;;;;;;;5057688;28;20180;-81
2023/12/13 08:24:50;;;;;;;7.85;4.40;;;;;;;;;;5057512;28;20446;-81
2023/12/13 08:27:16;;;;;;;12.53;4.00;;;;;;;;;;5057999;28;20187;-81
2023/12/13 08:29:42;;;;;;;11.70;3.60;;;;;;;;;;5057954;28;20931;-81
2023/12/13 08:32:08;;;;;;;8.93;3.58;;;;;;;;;;5057919;28;20409;-81
2023/12/13 08:34:34;;;;;;;10.43;4.00;;;;;;;;;;5057327;28;20521;-81
2023/12/13 08:37:03;;;;;;;7.50;3.33;;;;;;;;;;5057617;28;20206;-81
2023/12/13 08:39:29;;;;;;;6.45;3.47;;;;;;;;;;5057530;28;20401;-81
2023/12/13 08:41:55;;;;;;;9.63;4.28;;;;;;;;;;5057321;28;20174;-81
2023/12/13 08:44:21;;;;;;;11.70;3.78;;;;;;;;;;5057895;28;20668;-81
2023/12/13 08:46:48;;;;;;;7.05;3.58;;;;;;;;;;5056879;28;20173;-81
2023/12/13 08:49:14;;;;;;;9.60;3.95;;;;;;;;;;5057321;28;20227;-81
2023/12/13 08:51:39;;;;;;;10.37;3.73;;;;;;;;;;5057331;28;20633;-84
2023/12/13 08:54:05;;;;;;;11.60;3.60;;;;;;;;;;5057226;28;20496;-81
2023/12/13 08:56:31;;;;;;;6.75;3.15;;;;;;;;;;5057459;28;20466;-81
2023/12/13 08:58:58;;;;;;;11.37;3.17;;;;;;;;;;5057065;28;20178;-80
2023/12/13 09:01:24;;;;;;;15.02;4.13;;;;;;;;;;5057232;28;20965;-81
2023/12/13 09:03:53;;;;;;;6.03;3.55;;;;;;;;;;5056779;28;20633;-81
2023/12/13 09:06:19;;;;;;;7.28;4.10;;;;;;;;;;5056982;28;20664;-81
2023/12/13 09:08:44;;;;;;;13.27;4.57;;;;;;;;;;5056587;28;20178;-81
2023/12/13 09:11:11;;;;;;;8.93;4.00;;;;;;;;;;5056626;28;20533;-81
2023/12/13 09:13:37;;;;;;;11.38;4.50;;;;;;;;;;5056977;28;20487;-81
2023/12/13 09:16:04;;;;;;;12.75;5.50;;;;;;;;;;5055542;28;20165;-81
2023/12/13 09:18:30;;;;;;;8.65;3.47;;;;;;;;;;5057089;28;20634;-81
2023/12/13 09:20:56;;;;;;;9.43;4.22;;;;;;;;;;5056827;28;20590;-81
2023/12/13 09:23:22;;;;;;;9.53;3.90;;;;;;;;;;5056756;28;20182;-80
2023/12/13 09:25:48;;;;;;;8.93;4.00;;;;;;;;;;5056466;28;20440;-81
2023/12/13 09:28:14;;;;;;;9.98;4.28;;;;;;;;;;5056447;28;20413;-81
2023/12/13 09:30:40;;;;;;;10.43;4.32;;;;;;;;;;5056531;28;20586;-81
2023/12/13 09:33:06;;;;;;;9.57;5.17;;;;;;;;;;5056133;28;20223;-81
2023/12/13 09:35:32;;;;;;;7.00;4.20;;;;;;;;;;5056113;28;20423;-81
2023/12/13 09:37:58;;;;;;;10.30;4.83;;;;;;;;;;5056019;28;20422;-81
2023/12/13 09:40:24;;;;;;;15.10;5.97;;;;;;;;;;5055873;28;20415;-81
2023/12/13 09:42:50;;;;;;;14.50;5.05;;;;;;;;;;5056115;28;20525;-81
2023/12/13 09:45:21;;;;;;;18.13;6.20;;;;;;;;;;5056084;28;20181;-81
2023/12/13 09:47:49;;;;;;;16.17;5.85;;;;;;;;;;5055752;28;20182;-82
2023/12/13 09:50:15;;;;;;;15.40;5.32;;;;;;;;;;5056031;28;20200;-81
2023/12/13 09:52:41;;;;;;;11.65;5.82;;;;;;;;;;5055066;28;20296;-82
2023/12/13 09:55:08;;;;;;;12.73;5.07;;;;;;;;;;5055480;28;20177;-81
2023/12/13 09:57:34;;;;;;;11.27;4.80;;;;;;;;;;5055888;28;20184;-82
2023/12/13 10:00:00;;;;;;;10.45;5.10;;;;;;;;;;5057634;28;20185;-81
2023/12/13 10:02:26;;;;;;;13.82;5.28;;;;;;;;;;5056292;28;20170;-82
2023/12/13 10:04:53;;;;;;;12.83;5.00;;;;;;;;;;5055545;28;20189;-82
2023/12/13 10:07:19;;;;;;;12.32;5.35;;;;;;;;;;5058278;28;20510;-80
2023/12/13 10:09:45;;;;;;;11.38;5.50;;;;;;;;;;5055569;28;20635;-81
2023/12/13 10:12:15;;;;;;;6.53;3.83;;;;;;;;;;5055205;28;20182;-81
2023/12/13 10:14:43;;;;;;;12.27;3.97;;;;;;;;;;5055644;28;20241;-81
2023/12/13 10:17:09;;;;;;;7.10;3.53;;;;;;;;;;5055297;28;20216;-81
2023/12/13 10:19:35;;;;;;;6.97;3.70;;;;;;;;;;5055432;28;20247;-81
2023/12/13 10:22:05;;;;;;;8.65;4.05;;;;;;;;;;5055096;28;20430;-81
2023/12/13 10:24:31;;;;;;;9.85;4.35;;;;;;;;;;5055371;28;20264;-81
2023/12/13 10:26:57;;;;;;;6.85;3.72;;;;;;;;;;5054749;28;20188;-82
2023/12/13 10:29:23;;;;;;;15.13;5.10;;;;;;;;;;5054146;28;20173;-81
2023/12/13 10:31:49;;;;;;;9.23;3.33;;;;;;;;;;5058892;28;20621;-79
2023/12/13 10:34:16;;;;;;;11.35;4.80;;;;;;;;;;5055279;28;20612;-81
2023/12/13 10:36:45;;;;;;;7.50;4.13;;;;;;;;;;5055593;28;20181;-81
2023/12/13 10:39:14;;;;;;;7.85;3.67;;;;;;;;;;5055121;28;20235;-82
2023/12/13 10:41:44;;;;;;;11.82;3.83;;;;;;;;;;5055102;28;20177;-82
2023/12/13 10:44:18;;;;;;;12.10;4.07;;;;;;;;;;5055103;28;20181;-81
2023/12/13 10:46:47;;;;;;;7.95;4.15;;;;;;;;;;5055314;28;20637;-81
2023/12/13 10:49:16;;;;;;;9.93;4.30;;;;;;;;;;5055301;28;20545;-81
2023/12/13 10:51:44;;;;;;;12.25;4.75;;;;;;;;;;5055427;28;20196;-82
2023/12/13 10:54:12;;;;;;;5.63;3.30;;;;;;;;;;5053976;28;20291;-82
2023/12/13 10:56:39;;;;;;;7.55;4.18;;;;;;;;;;5054893;28;20170;-81
2023/12/13 10:59:06;;;;;;;16.67;4.20;;;;;;;;;;5054988;28;20574;-82
2023/12/13 11:01:32;;;;;;;9.98;3.42;;;;;;;;;;5055230;28;20166;-82
2023/12/13 11:04:02;;;;;;;8.48;3.25;;;;;;;;;;5054862;28;20184;-82
2023/12/13 11:06:30;;;;;;;14.75;3.60;;;;;;;;;;5055210;28;20173;-82
2023/12/13 11:08:56;;;;;;;6.72;3.20;;;;;;;;;;5054763;28;20169;-82
2023/12/13 11:11:29;;;;;;;10.85;4.57;;;;;;;;;;5054939;28;20234;-82
2023/12/13 11:13:55;;;;;;;8.90;3.13;;;;;;;;;;5054670;28;20212;-82
2023/12/13 11:16:22;;;;;;;6.53;3.47;;;;;;;;;;5054764;28;20182;-82
2023/12/13 11:18:52;;;;;;;6.95;3.60;;;;;;;;;;5054412;28;20181;-85
2023/12/13 11:21:31;;;;;;;8.30;3.30;;;;;;;;;;5054839;28;20631;-81
2023/12/13 11:24:20;;;;;;;11.77;3.72;;;;;;;;;;5054502;28;20181;-82
2023/12/13 11:26:53;;;;;;;7.43;2.72;;;;;;;;;;5054554;28;20646;-81
2023/12/13 11:29:19;;;;;;;9.63;3.58;;;;;;;;;;5054415;28;20264;-82
2023/12/13 11:32:04;;;;;;;7.90;2.73;;;;;;;;;;5054681;28;20212;-82
2023/12/13 11:34:34;;;;;;;6.65;2.55;;;;;;;;;;5054702;28;20499;-81
2023/12/13 11:37:04;;;;;;;6.82;2.92;;;;;;;;;;5053981;28;20173;-82
2023/12/13 11:39:30;;;;;;;4.75;2.30;;;;;;;;;;5055448;28;20169;-81
2023/12/13 11:41:58;;;;;;;12.90;2.47;;;;;;;;;;5060901;28;20528;-80
2023/12/13 11:44:28;;;;;;;9.10;2.50;;;;;;;;;;5059226;28;20177;-81
2023/12/13 11:46:57;;;;;;;8.68;2.45;;;;;;;;;;5058619;28;20256;-82
2023/12/13 11:49:25;;;;;;;7.93;2.13;;;;;;;;;;5058241;28;20189;-81
2023/12/13 11:51:51;;;;;;;5.82;2.30;;;;;;;;;;5058249;28;20599;-83
2023/12/13 11:54:17;;;;;;;5.93;1.92;;;;;;;;;;5058048;28;20601;-82
2023/12/13 11:56:43;;;;;;;6.83;2.30;;;;;;;;;;5059652;28;20201;-81
2023/12/13 11:59:09;;;;;;;9.13;2.63;;;;;;;;;;5058552;28;20814;-81
2023/12/13 12:01:35;;;;;;;2.43;1.50;;;;;;;;;;5058734;28;20196;-81
2023/12/13 12:04:02;;;;;;;7.45;1.75;;;;;;;;;;5058363;28;20495;-82
2023/12/13 12:06:28;;;;;;;3.63;1.67;;;;;;;;;;5058386;28;20182;-81
2023/12/13 12:08:54;;;;;;;4.93;1.90;;;;;;;;;;5057691;28;20202;-82
2023/12/13 12:11:20;;;;;;;7.30;2.28;;;;;;;;;;5058026;28;20174;-81
2023/12/13 12:13:46;;;;;;;7.40;1.70;;;;;;;;;;5058196;28;20288;-81
2023/12/13 12:16:13;;;;;;;5.22;2.85;;;;;;;;;;5057852;28;20254;-81
2023/12/13 12:18:39;;;;;;;5.28;1.85;;;;;;;;;;5058121;28;20284;-81
2023/12/13 12:21:08;;;;;;;6.70;1.77;;;;;;;;;;5057663;28;20514;-82
2023/12/13 12:23:38;;;;;;;6.05;1.63;;;;;;;;;;5057276;28;20431;-81
2023/12/13 12:26:08;;;;;;;9.57;1.63;;;;;;;;;;5057624;28;20549;-81
2023/12/13 12:28:34;;;;;;;4.47;1.20;;;;;;;;;;5057492;28;20625;-81
2023/12/13 12:31:00;;;;;;;7.75;2.40;;;;;;;;;;5057743;28;20177;-81
2023/12/13 12:33:26;;;;;;;7.93;1.50;;;;;;;;;;5057925;28;20205;-81
2023/12/13 12:35:52;;;;;;;5.25;1.75;;;;;;;;;;5057474;28;20415;-82
2023/12/13 12:38:18;;;;;;;6.78;1.90;;;;;;;;;;5058179;28;20637;-81
2023/12/13 12:40:44;;;;;;;7.73;2.43;;;;;;;;;;5058233;28;20189;-81
2023/12/13 12:43:11;;;;;;;7.47;1.65;;;;;;;;;;5057277;28;20400;-81
2023/12/13 12:45:37;;;;;;;10.23;2.20;;;;;;;;;;5057523;28;20268;-80
2023/12/13 12:48:03;;;;;;;6.05;1.80;;;;;;;;;;5057573;28;20507;-81
2023/12/13 12:50:29;;;;;;;5.55;2.10;;;;;;;;;;5057378;28;20242;-81
2023/12/13 12:52:55;;;;;;;5.38;2.00;;;;;;;;;;5057028;28;20237;-81
2023/12/13 12:55:22;;;;;;;5.78;1.48;;;;;;;;;;5056163;28;20684;-81
2023/12/13 12:57:49;;;;;;;6.53;1.77;;;;;;;;;;5057623;28;20181;-81
2023/12/13 13:00:18;;;;;;;6.90;1.90;;;;;;;;;;5056970;28;20181;-80
2023/12/13 13:02:44;;;;;;;5.25;1.50;;;;;;;;;;5057068;28;20217;-80
2023/12/13 13:05:10;;;;;;;11.25;1.73;;;;;;;;;;5057104;28;20208;-81
2023/12/13 13:07:36;;;;;;;6.53;1.80;;;;;;;;;;5057021;28;20216;-80
2023/12/13 13:10:04;;;;;;;8.50;2.03;;;;;;;;;;5056956;28;20181;-81
2023/12/13 13:12:31;;;;;;;8.45;2.10;;;;;;;;;;5056868;28;20407;-80
2023/12/13 13:14:57;;;;;;;6.07;1.98;;;;;;;;;;5056969;28;20185;-82
2023/12/13 13:17:24;;;;;;;8.57;2.00;;;;;;;;;;5057097;28;20193;-81
2023/12/13 13:19:51;;;;;;;5.28;1.20;;;;;;;;;;5056940;28;20186;-81
2023/12/13 13:22:17;;;;;;;6.63;1.33;;;;;;;;;;5057346;28;20530;-81
2023/12/13 13:24:43;;;;;;;5.88;1.70;;;;;;;;;;5057338;28;20585;-81
2023/12/13 13:27:10;;;;;;;6.60;1.45;;;;;;;;;;5056541;28;20246;-81
2023/12/13 13:29:36;;;;;;;5.65;1.90;;;;;;;;;;5057336;28;20554;-81
2023/12/13 13:32:02;;;;;;;4.50;1.80;;;;;;;;;;5056530;28;20283;-81
2023/12/13 13:34:28;;;;;;;6.20;1.70;;;;;;;;;;5056651;28;20467;-81
2023/12/13 13:36:54;;;;;;;5.80;2.20;;;;;;;;;;5056977;28;20392;-80
2023/12/13 13:39:20;;;;;;;4.57;1.50;;;;;;;;;;5056710;28;20930;-80
2023/12/13 13:41:46;;;;;;;7.05;1.95;;;;;;;;;;5056683;28;20404;-80
2023/12/13 13:44:12;;;;;;;2.60;1.10;;;;;;;;;;5056422;28;20231;-81
2023/12/13 13:46:38;;;;;;;6.90;2.03;;;;;;;;;;5056532;28;20443;-80
2023/12/13 13:49:04;;;;;;;7.57;1.75;;;;;;;;;;5056129;28;20447;-81
2023/12/13 13:51:29;;;;;;;6.30;2.40;;;;;;;;;;5056486;28;20182;-80
2023/12/13 13:53:56;;;;;;;5.70;1.50;;;;;;;;;;5056530;28;20711;-81
2023/12/13 13:56:22;;;;;;;4.60;1.83;;;;;;;;;;5056181;28;20404;-81
2023/12/13 13:58:52;;;;;;;5.05;1.45;;;;;;;;;;5056617;28;20186;-80
2023/12/13 14:01:18;;;;;;;3.25;1.35;;;;;;;;;;5055628;28;20174;-81
2023/12/13 14:03:44;;;;;;;9.70;1.60;;;;;;;;;;5055743;28;20193;-80
2023/12/13 14:06:10;;;;;;;7.30;1.67;;;;;;;;;;5056346;28;20400;-81
2023/12/13 14:08:36;;;;;;;6.37;2.13;;;;;;;;;;5055643;28;20205;-80
2023/12/13 14:11:03;;;;;;;4.82;1.40;;;;;;;;;;5054928;28;20408;-81
2023/12/13 14:13:29;;;;;;;5.65;1.75;;;;;;;;;;5055089;28;20275;-80
2023/12/13 14:15:55;;;;;;;5.30;2.13;;;;;;;;;;5055621;28;20174;-80
2023/12/13 14:18:21;;;;;;;4.57;1.70;;;;;;;;;;5055086;28;20412;-80
2023/12/13 14:20:48;;;;;;;5.60;2.20;;;;;;;;;;5055274;28;20416;-80
2023/12/13 14:23:14;;;;;;;4.97;1.70;;;;;;;;;;5055341;28;20428;-81
2023/12/13 14:25:40;;;;;;;7.20;1.60;;;;;;;;;;5056188;28;20234;-80
2023/12/13 14:28:07;;;;;;;10.35;3.33;;;;;;;;;;5055749;28;20725;-81
2023/12/13 14:30:33;;;;;;;5.40;1.85;;;;;;;;;;5055834;28;20173;-81
2023/12/13 14:32:59;;;;;;;6.97;1.77;;;;;;;;;;5055743;28;20227;-80
2023/12/13 14:35:25;;;;;;;4.87;2.43;;;;;;;;;;5056157;28;20411;-80
2023/12/13 14:37:51;;;;;;;3.47;1.40;;;;;;;;;;5056011;28;20412;-80